| time (UTC) | temp F | wind direction | speed knots | gust knots | rain 1hr in | rain 24hr in | rain mn in | humidity % | barometer mb |
| 20260902101537 | 74 | 0 | 0.9 | 3.5 | 0.00 | 0.00 | 0.00 | 65 | 1022.1 |
| 20260902091535 | 70 | 5 | 1.7 | 3.5 | 0.00 | 0.00 | 0.00 | 68 | 1022.3 |
| 20260902081536 | 67 | 110 | 0.9 | 2.6 | 0.00 | 0.00 | 0.00 | 74 | 1021.7 |
| 20260902073036 | 61 | 171 | 1.7 | 3.5 | 0.00 | 0.00 | 0.00 | 85 | 1022.1 |
| 20260902071536 | 59 | 288 | 0.0 | 2.6 | 0.00 | 0.00 | 0.00 | 89 | 1022.0 |
| 20260902070036 | 59 | 202 | 0.9 | 2.6 | 0.00 | 0.00 | 0.00 | 87 | 1021.9 |
| 20260902064537 | 58 | 0 | 0.9 | 2.6 | 0.00 | 0.00 | 0.00 | 87 | 1021.8 |
| 20260902063051 | 57 | 0 | 0.0 | 2.6 | 0.00 | 0.00 | 0.00 | 90 | 1022.1 |
| 20260902060042 | 54 | 194 | 0.0 | 2.6 | 0.00 | 0.00 | 0.00 | 97 | 1022.1 |
| 20260902054537 | 53 | 194 | 0.0 | 2.6 | 0.00 | 0.00 | 0.00 | 96 | 1021.8 |
| 20260902053039 | 52 | 191 | 0.9 | 1.7 | 0.00 | 0.00 | 0.00 | 96 | 1021.7 |
| 20260902050036 | 52 | 194 | 0.0 | 1.7 | 0.00 | 0.00 | 0.00 | 96 | 1021.6 |
| 20260902044600 | 52 | 192 | 0.0 | 1.7 | 0.00 | 0.00 | 0.00 | 96 | 1021.5 |
| 20260902034537 | 52 | 0 | 0.0 | 2.6 | 0.00 | 0.00 | 0.00 | 95 | 1021.5 |
| 20260902033037 | 53 | 0 | 0.0 | 0.0 | 0.00 | 0.00 | 0.00 | 95 | 1021.5 |
| 20260902024542 | 53 | 191 | 0.9 | 1.7 | 0.00 | 0.00 | 0.00 | 94 | 1021.4 |
| 20260901233036 | 58 | 183 | 2.6 | 3.5 | 0.00 | 0.00 | 0.00 | 87 | 1021.5 |
| 20260901224538 | 58 | 189 | 1.7 | 3.5 | 0.00 | 0.00 | 0.00 | 86 | 1021.4 |
| 20260901223102 | 59 | 178 | 0.0 | 2.6 | 0.00 | 0.00 | 0.00 | 86 | 1021.5 |
| 20260901221536 | 60 | 178 | 0.9 | 2.6 | 0.00 | 0.00 | 0.00 | 83 | 1021.5 |
| 20260901220038 | 61 | 179 | 1.7 | 3.5 | 0.00 | 0.00 | 0.00 | 82 | 1021.6 |
| 20260901214539 | 61 | 172 | 1.7 | 4.3 | 0.00 | 0.00 | 0.00 | 82 | 1021.6 |
| 20260901213036 | 61 | 184 | 2.6 | 4.3 | 0.00 | 0.00 | 0.00 | 81 | 1021.7 |
| 20260901211537 | 61 | 176 | 1.7 | 4.3 | 0.00 | 0.00 | 0.00 | 81 | 1021.7 |
| 20260901210034 | 62 | 171 | 1.7 | 5.2 | 0.00 | 0.00 | 0.00 | 81 | 1021.8 |
| 20260901204540 | 62 | 184 | 2.6 | 3.5 | 0.00 | 0.00 | 0.00 | 81 | 1021.7 |
| 20260901203037 | 63 | 193 | 1.7 | 4.3 | 0.00 | 0.00 | 0.00 | 80 | 1021.8 |
| 20260901201534 | 63 | 195 | 2.6 | 4.3 | 0.00 | 0.00 | 0.00 | 80 | 1021.6 |
| 20260901200035 | 63 | 194 | 1.7 | 3.5 | 0.00 | 0.00 | 0.00 | 80 | 1021.6 |
| 20260901194539 | 63 | 257 | 0.9 | 2.6 | 0.00 | 0.00 | 0.00 | 81 | 1021.6 |
| 20260901193038 | 64 | 0 | 0.9 | 1.7 | 0.00 | 0.00 | 0.00 | 78 | 1021.4 |
| 20260901191543 | 65 | 259 | 0.0 | 2.6 | 0.00 | 0.00 | 0.00 | 78 | 1021.2 |
| 20260901190038 | 66 | 259 | 0.0 | 1.7 | 0.00 | 0.00 | 0.00 | 78 | 1021.2 |
| 20260901184535 | 67 | 0 | 0.0 | 1.7 | 0.00 | 0.00 | 0.00 | 78 | 1021.0 |
| 20260901183058 | 69 | 0 | 0.0 | 1.7 | 0.00 | 0.00 | 0.00 | 76 | 1021.0 |
| 20260901181539 | 70 | 259 | 0.9 | 2.6 | 0.00 | 0.00 | 0.00 | 70 | 1020.9 |
| 20260901180035 | 71 | 0 | 0.0 | 2.6 | 0.00 | 0.00 | 0.00 | 65 | 1020.7 |
| 20260901174537 | 71 | 0 | 0.9 | 1.7 | 0.00 | 0.00 | 0.00 | 69 | 1020.6 |
| 20260901173046 | 72 | 0 | 0.0 | 0.9 | 0.00 | 0.00 | 0.00 | 67 | 1020.5 |
| 20260901171548 | 73 | 252 | 0.0 | 1.7 | 0.00 | 0.00 | 0.00 | 64 | 1020.5 |
| 20260901170048 | 74 | 252 | 0.0 | 1.7 | 0.00 | 0.00 | 0.00 | 60 | 1020.5 |
| 20260901164535 | 76 | 317 | 0.9 | 4.3 | 0.00 | 0.00 | 0.00 | 54 | 1020.6 |
| 20260901163054 | 78 | 207 | 0.9 | 4.3 | 0.00 | 0.00 | 0.00 | 50 | 1020.5 |
| 20260901161546 | 78 | 322 | 0.9 | 3.5 | 0.00 | 0.00 | 0.00 | 49 | 1020.5 |
| 20260901160040 | 78 | 0 | 0.9 | 2.6 | 0.00 | 0.00 | 0.00 | 49 | 1020.6 |
| 20260901154535 | 77 | 273 | 0.9 | 2.6 | 0.00 | 0.00 | 0.00 | 49 | 1020.6 |
| 20260901153034 | 77 | 167 | 1.7 | 5.2 | 0.00 | 0.00 | 0.00 | 49 | 1020.7 |
| 20260901151542 | 78 | 55 | 1.7 | 5.2 | 0.00 | 0.00 | 0.00 | 50 | 1020.8 |
| 20260901150043 | 76 | 0 | 0.0 | 3.5 | 0.00 | 0.00 | 0.00 | 52 | 1020.6 |
| 20260901144536 | 77 | 213 | 0.9 | 5.2 | 0.00 | 0.00 | 0.00 | 51 | 1020.8 |
| 20260901143039 | 77 | 308 | 1.7 | 7.8 | 0.00 | 0.00 | 0.00 | 50 | 1020.8 |
| 20260901141542 | 77 | 18 | 0.9 | 4.3 | 0.00 | 0.00 | 0.00 | 53 | 1020.9 |
| 20260901140036 | 77 | 229 | 1.7 | 5.2 | 0.00 | 0.00 | 0.00 | 52 | 1021.0 |
| 20260901134537 | 77 | 347 | 0.9 | 5.2 | 0.00 | 0.00 | 0.00 | 54 | 1021.0 |
| 20260901133044 | 77 | 266 | 2.6 | 7.8 | 0.00 | 0.00 | 0.00 | 51 | 1021.1 |
| 20260901131540 | 77 | 317 | 2.6 | 7.8 | 0.00 | 0.00 | 0.00 | 54 | 1021.2 |
| 20260901130036 | 77 | 27 | 2.6 | 7.0 | 0.00 | 0.00 | 0.00 | 52 | 1021.3 |
| 20260901124536 | 76 | 352 | 1.7 | 3.5 | 0.00 | 0.00 | 0.00 | 53 | 1021.5 |
| 20260901123040 | 76 | 28 | 2.6 | 7.8 | 0.00 | 0.00 | 0.00 | 55 | 1021.7 |
| 20260901121540 | 75 | 74 | 1.7 | 7.8 | 0.00 | 0.00 | 0.00 | 57 | 1021.7 |
| 20260901120036 | 75 | 46 | 2.6 | 7.0 | 0.00 | 0.00 | 0.00 | 56 | 1021.7 |
| 20260901114538 | 74 | 25 | 1.7 | 7.8 | 0.00 | 0.00 | 0.00 | 56 | 1021.8 |
| 20260901113037 | 74 | 9 | 3.5 | 7.0 | 0.00 | 0.00 | 0.00 | 55 | 1022.0 |
| 20260901111534 | 75 | 91 | 1.7 | 5.2 | 0.00 | 0.00 | 0.00 | 60 | 1021.9 |
| 20260901110040 | 73 | 120 | 1.7 | 5.2 | 0.00 | 0.00 | 0.00 | 62 | 1022.0 |
| 20260901104534 | 74 | 44 | 0.9 | 8.7 | 0.00 | 0.00 | 0.00 | 59 | 1022.1 |
| 20260901103034 | 73 | 279 | 0.0 | 6.1 | 0.00 | 0.00 | 0.00 | 61 | 1022.1 |